sensor_id;sensor_type;location;lat;lon;timestamp;pressure;altitude;pressure_sealevel;temperature
30765;BMP180;494;48.744;10.106;2023-05-16T00:00:32;95136.00;;;10.60
30765;BMP180;494;48.744;10.106;2023-05-16T00:03:01;95356.00;;;10.80
30765;BMP180;494;48.744;10.106;2023-05-16T00:05:30;95287.00;;;9.30
30765;BMP180;494;48.744;10.106;2023-05-16T00:08:01;95353.00;;;10.90
30765;BMP180;494;48.744;10.106;2023-05-16T00:10:30;95007.00;;;11.00
30765;BMP180;494;48.744;10.106;2023-05-16T00:12:58;94374.00;;;9.90
30765;BMP180;494;48.744;10.106;2023-05-16T00:15:29;95367.00;;;10.80
30765;BMP180;494;48.744;10.106;2023-05-16T00:17:58;94558.00;;;8.20
30765;BMP180;494;48.744;10.106;2023-05-16T00:20:27;95028.00;;;10.60
30765;BMP180;494;48.744;10.106;2023-05-16T00:22:56;95340.00;;;10.50
30765;BMP180;494;48.744;10.106;2023-05-16T00:25:29;95335.00;;;10.50
30765;BMP180;494;48.744;10.106;2023-05-16T00:27:58;94981.00;;;10.20
30765;BMP180;494;48.744;10.106;2023-05-16T00:30:27;94921.00;;;9.60
30765;BMP180;494;48.744;10.106;2023-05-16T00:32:55;95007.00;;;7.90
30765;BMP180;494;48.744;10.106;2023-05-16T00:35:24;94914.00;;;9.90
30765;BMP180;494;48.744;10.106;2023-05-16T00:37:53;95111.00;;;9.80
30765;BMP180;494;48.744;10.106;2023-05-16T00:40:22;95147.00;;;9.80
30765;BMP180;494;48.744;10.106;2023-05-16T00:42:52;95168.00;;;9.70
30765;BMP180;494;48.744;10.106;2023-05-16T00:45:21;95160.00;;;9.80
30765;BMP180;494;48.744;10.106;2023-05-16T00:47:50;95342.00;;;9.80
30765;BMP180;494;48.744;10.106;2023-05-16T00:50:19;95330.00;;;9.90
30765;BMP180;494;48.744;10.106;2023-05-16T00:52:48;95141.00;;;8.80
30765;BMP180;494;48.744;10.106;2023-05-16T00:55:17;95213.00;;;9.90
30765;BMP180;494;48.744;10.106;2023-05-16T00:57:45;95259.00;;;10.00
30765;BMP180;494;48.744;10.106;2023-05-16T01:00:16;95333.00;;;10.10
30765;BMP180;494;48.744;10.106;2023-05-16T01:02:46;95281.00;;;10.10
30765;BMP180;494;48.744;10.106;2023-05-16T01:05:15;95328.00;;;10.20
30765;BMP180;494;48.744;10.106;2023-05-16T01:07:44;95329.00;;;10.40
30765;BMP180;494;48.744;10.106;2023-05-16T01:10:14;95178.00;;;10.50
30765;BMP180;494;48.744;10.106;2023-05-16T01:12:55;95289.00;;;10.40
30765;BMP180;494;48.744;10.106;2023-05-16T01:15:38;95316.00;;;10.50
30765;BMP180;494;48.744;10.106;2023-05-16T01:18:24;95167.00;;;10.50
30765;BMP180;494;48.744;10.106;2023-05-16T01:21:00;95315.00;;;10.60
30765;BMP180;494;48.744;10.106;2023-05-16T01:23:47;95321.00;;;10.60
30765;BMP180;494;48.744;10.106;2023-05-16T01:26:21;95374.00;;;10.60
30765;BMP180;494;48.744;10.106;2023-05-16T01:28:51;95159.00;;;10.70
30765;BMP180;494;48.744;10.106;2023-05-16T01:31:21;95003.00;;;10.70
30765;BMP180;494;48.744;10.106;2023-05-16T01:33:50;95039.00;;;10.80
30765;BMP180;494;48.744;10.106;2023-05-16T01:36:28;94992.00;;;11.00
30765;BMP180;494;48.744;10.106;2023-05-16T01:39:12;95363.00;;;10.90
30765;BMP180;494;48.744;10.106;2023-05-16T01:41:56;95315.00;;;10.90
30765;BMP180;494;48.744;10.106;2023-05-16T01:44:32;95237.00;;;10.40
30765;BMP180;494;48.744;10.106;2023-05-16T01:47:11;95045.00;;;10.90
30765;BMP180;494;48.744;10.106;2023-05-16T01:49:45;95313.00;;;11.00
30765;BMP180;494;48.744;10.106;2023-05-16T01:52:27;95086.00;;;10.80
30765;BMP180;494;48.744;10.106;2023-05-16T01:55:01;95310.00;;;10.90
30765;BMP180;494;48.744;10.106;2023-05-16T01:57:32;95316.00;;;11.00
30765;BMP180;494;48.744;10.106;2023-05-16T02:00:01;94965.00;;;11.00
30765;BMP180;494;48.744;10.106;2023-05-16T02:02:30;95054.00;;;11.10
30765;BMP180;494;48.744;10.106;2023-05-16T02:04:59;95318.00;;;11.10
30765;BMP180;494;48.744;10.106;2023-05-16T02:07:28;95184.00;;;11.20
30765;BMP180;494;48.744;10.106;2023-05-16T02:09:56;95012.00;;;10.40
30765;BMP180;494;48.744;10.106;2023-05-16T02:12:25;95233.00;;;11.00
30765;BMP180;494;48.744;10.106;2023-05-16T02:14:55;94702.00;;;11.10
30765;BMP180;494;48.744;10.106;2023-05-16T02:17:24;95315.00;;;10.90
30765;BMP180;494;48.744;10.106;2023-05-16T02:19:52;95314.00;;;11.00
30765;BMP180;494;48.744;10.106;2023-05-16T02:22:21;95318.00;;;11.00
30765;BMP180;494;48.744;10.106;2023-05-16T02:24:50;95151.00;;;11.00
30765;BMP180;494;48.744;10.106;2023-05-16T02:27:19;94644.00;;;9.50
30765;BMP180;494;48.744;10.106;2023-05-16T02:29:47;95190.00;;;10.80
30765;BMP180;494;48.744;10.106;2023-05-16T02:32:17;95102.00;;;10.90
30765;BMP180;494;48.744;10.106;2023-05-16T02:34:46;94994.00;;;10.70
30765;BMP180;494;48.744;10.106;2023-05-16T02:37:15;95328.00;;;10.60
30765;BMP180;494;48.744;10.106;2023-05-16T02:39:44;94708.00;;;10.60
30765;BMP180;494;48.744;10.106;2023-05-16T02:42:12;95314.00;;;10.80
30765;BMP180;494;48.744;10.106;2023-05-16T02:44:41;94626.00;;;10.70
30765;BMP180;494;48.744;10.106;2023-05-16T02:47:10;95070.00;;;10.70
30765;BMP180;494;48.744;10.106;2023-05-16T02:49:40;94761.00;;;9.20
30765;BMP180;494;48.744;10.106;2023-05-16T02:52:09;95026.00;;;10.90
30765;BMP180;494;48.744;10.106;2023-05-16T02:54:38;95086.00;;;10.20
30765;BMP180;494;48.744;10.106;2023-05-16T02:57:06;95129.00;;;10.70
30765;BMP180;494;48.744;10.106;2023-05-16T02:59:35;94960.00;;;10.90
30765;BMP180;494;48.744;10.106;2023-05-16T03:02:04;95185.00;;;10.90
30765;BMP180;494;48.744;10.106;2023-05-16T03:04:33;94825.00;;;10.20
30765;BMP180;494;48.744;10.106;2023-05-16T03:07:04;95129.00;;;9.90
30765;BMP180;494;48.744;10.106;2023-05-16T03:09:33;95321.00;;;10.70
30765;BMP180;494;48.744;10.106;2023-05-16T03:12:03;95249.00;;;10.90
30765;BMP180;494;48.744;10.106;2023-05-16T03:14:33;95167.00;;;10.80
30765;BMP180;494;48.744;10.106;2023-05-16T03:17:02;95320.00;;;10.70
30765;BMP180;494;48.744;10.106;2023-05-16T03:19:31;95035.00;;;8.40
30765;BMP180;494;48.744;10.106;2023-05-16T03:21:59;95067.00;;;10.60
30765;BMP180;494;48.744;10.106;2023-05-16T03:24:29;95074.00;;;10.60
30765;BMP180;494;48.744;10.106;2023-05-16T03:26:58;95234.00;;;10.50
30765;BMP180;494;48.744;10.106;2023-05-16T03:29:27;95323.00;;;10.40
30765;BMP180;494;48.744;10.106;2023-05-16T03:31:56;95352.00;;;10.50
30765;BMP180;494;48.744;10.106;2023-05-16T03:34:25;94925.00;;;10.50
30765;BMP180;494;48.744;10.106;2023-05-16T03:36:54;95213.00;;;10.60
30765;BMP180;494;48.744;10.106;2023-05-16T03:39:23;95149.00;;;10.60
30765;BMP180;494;48.744;10.106;2023-05-16T03:41:54;95018.00;;;10.50
30765;BMP180;494;48.744;10.106;2023-05-16T03:44:23;95106.00;;;10.60
30765;BMP180;494;48.744;10.106;2023-05-16T03:46:52;94666.00;;;10.50
30765;BMP180;494;48.744;10.106;2023-05-16T03:49:25;95304.00;;;10.50
30765;BMP180;494;48.744;10.106;2023-05-16T03:51:55;95309.00;;;10.40
30765;BMP180;494;48.744;10.106;2023-05-16T03:54:24;95195.00;;;10.30
30765;BMP180;494;48.744;10.106;2023-05-16T03:56:55;95318.00;;;10.10
30765;BMP180;494;48.744;10.106;2023-05-16T03:59:24;95138.00;;;10.20
30765;BMP180;494;48.744;10.106;2023-05-16T04:01:52;95311.00;;;10.10
30765;BMP180;494;48.744;10.106;2023-05-16T04:04:21;95054.00;;;10.00
30765;BMP180;494;48.744;10.106;2023-05-16T04:06:50;95318.00;;;10.10
30765;BMP180;494;48.744;10.106;2023-05-16T04:09:18;95166.00;;;10.10
30765;BMP180;494;48.744;10.106;2023-05-16T04:11:47;95333.00;;;10.20
30765;BMP180;494;48.744;10.106;2023-05-16T04:14:17;95127.00;;;10.30
30765;BMP180;494;48.744;10.106;2023-05-16T04:16:46;94897.00;;;9.40
30765;BMP180;494;48.744;10.106;2023-05-16T04:19:15;95217.00;;;10.40
30765;BMP180;494;48.744;10.106;2023-05-16T04:21:44;95174.00;;;10.50
30765;BMP180;494;48.744;10.106;2023-05-16T04:24:13;94977.00;;;9.20
30765;BMP180;494;48.744;10.106;2023-05-16T04:26:43;95228.00;;;10.80
30765;BMP180;494;48.744;10.106;2023-05-16T04:29:12;95469.00;;;9.60
30765;BMP180;494;48.744;10.106;2023-05-16T04:31:42;94924.00;;;11.00
30765;BMP180;494;48.744;10.106;2023-05-16T04:34:11;94691.00;;;10.10
30765;BMP180;494;48.744;10.106;2023-05-16T04:36:39;95154.00;;;10.80
30765;BMP180;494;48.744;10.106;2023-05-16T04:39:08;95345.00;;;11.40
30765;BMP180;494;48.744;10.106;2023-05-16T04:41:38;95316.00;;;11.60
30765;BMP180;494;48.744;10.106;2023-05-16T04:44:07;95080.00;;;11.60
30765;BMP180;494;48.744;10.106;2023-05-16T04:46:37;95319.00;;;11.70
30765;BMP180;494;48.744;10.106;2023-05-16T04:49:07;95206.00;;;11.80
30765;BMP180;494;48.744;10.106;2023-05-16T04:51:37;95172.00;;;11.40
30765;BMP180;494;48.744;10.106;2023-05-16T04:54:06;95384.00;;;12.10
30765;BMP180;494;48.744;10.106;2023-05-16T04:56:35;95383.00;;;9.90
30765;BMP180;494;48.744;10.106;2023-05-16T04:59:04;94999.00;;;11.20
30765;BMP180;494;48.744;10.106;2023-05-16T05:01:32;95338.00;;;12.40
30765;BMP180;494;48.744;10.106;2023-05-16T05:04:01;95178.00;;;11.30
30765;BMP180;494;48.744;10.106;2023-05-16T05:06:32;95331.00;;;12.80
30765;BMP180;494;48.744;10.106;2023-05-16T05:09:00;95344.00;;;13.00
30765;BMP180;494;48.744;10.106;2023-05-16T05:11:29;95123.00;;;12.90
30765;BMP180;494;48.744;10.106;2023-05-16T05:13:57;95343.00;;;12.80
30765;BMP180;494;48.744;10.106;2023-05-16T05:16:26;95483.00;;;13.00
30765;BMP180;494;48.744;10.106;2023-05-16T05:18:55;95344.00;;;12.90
30765;BMP180;494;48.744;10.106;2023-05-16T05:21:24;95077.00;;;13.10
30765;BMP180;494;48.744;10.106;2023-05-16T05:23:54;95078.00;;;9.70
30765;BMP180;494;48.744;10.106;2023-05-16T05:26:27;95223.00;;;13.30
30765;BMP180;494;48.744;10.106;2023-05-16T05:28:55;95238.00;;;12.60
30765;BMP180;494;48.744;10.106;2023-05-16T05:31:32;95212.00;;;13.70
30765;BMP180;494;48.744;10.106;2023-05-16T05:34:03;95253.00;;;13.80
30765;BMP180;494;48.744;10.106;2023-05-16T05:36:31;95452.00;;;13.90
30765;BMP180;494;48.744;10.106;2023-05-16T05:39:02;95351.00;;;14.00
30765;BMP180;494;48.744;10.106;2023-05-16T05:41:31;95089.00;;;14.10
30765;BMP180;494;48.744;10.106;2023-05-16T05:44:00;95348.00;;;14.40
30765;BMP180;494;48.744;10.106;2023-05-16T05:46:30;95078.00;;;14.20
30765;BMP180;494;48.744;10.106;2023-05-16T05:48:58;95172.00;;;14.30
30765;BMP180;494;48.744;10.106;2023-05-16T05:51:27;94926.00;;;14.40
30765;BMP180;494;48.744;10.106;2023-05-16T05:53:56;95017.00;;;12.90
30765;BMP180;494;48.744;10.106;2023-05-16T05:56:27;94995.00;;;14.10
30765;BMP180;494;48.744;10.106;2023-05-16T05:58:57;95212.00;;;14.70
30765;BMP180;494;48.744;10.106;2023-05-16T06:01:26;95340.00;;;14.70
30765;BMP180;494;48.744;10.106;2023-05-16T06:03:58;95370.00;;;14.50
30765;BMP180;494;48.744;10.106;2023-05-16T06:06:28;95342.00;;;14.80
30765;BMP180;494;48.744;10.106;2023-05-16T06:08:58;94831.00;;;13.30
30765;BMP180;494;48.744;10.106;2023-05-16T06:11:28;95355.00;;;13.70
30765;BMP180;494;48.744;10.106;2023-05-16T06:13:58;95422.00;;;15.00
30765;BMP180;494;48.744;10.106;2023-05-16T06:16:30;95346.00;;;14.80
30765;BMP180;494;48.744;10.106;2023-05-16T06:18:59;95188.00;;;13.90
30765;BMP180;494;48.744;10.106;2023-05-16T06:21:28;95282.00;;;14.90
30765;BMP180;494;48.744;10.106;2023-05-16T06:23:56;95310.00;;;14.60
30765;BMP180;494;48.744;10.106;2023-05-16T06:26:25;94790.00;;;14.40
30765;BMP180;494;48.744;10.106;2023-05-16T06:28:55;94765.00;;;13.40
30765;BMP180;494;48.744;10.106;2023-05-16T06:31:24;95263.00;;;15.40
30765;BMP180;494;48.744;10.106;2023-05-16T06:48:07;95335.00;;;13.50
30765;BMP180;494;48.744;10.106;2023-05-16T06:50:37;95273.00;;;15.00
30765;BMP180;494;48.744;10.106;2023-05-16T06:53:06;95372.00;;;14.40
30765;BMP180;494;48.744;10.106;2023-05-16T06:55:34;95414.00;;;14.80
30765;BMP180;494;48.744;10.106;2023-05-16T06:58:03;95254.00;;;14.90
30765;BMP180;494;48.744;10.106;2023-05-16T07:00:32;95256.00;;;14.50
30765;BMP180;494;48.744;10.106;2023-05-16T07:03:01;95401.00;;;12.70
30765;BMP180;494;48.744;10.106;2023-05-16T07:05:32;95281.00;;;15.40
30765;BMP180;494;48.744;10.106;2023-05-16T07:08:01;95462.00;;;15.10
30765;BMP180;494;48.744;10.106;2023-05-16T07:10:33;95442.00;;;15.30
30765;BMP180;494;48.744;10.106;2023-05-16T07:13:03;95488.00;;;15.70
30765;BMP180;494;48.744;10.106;2023-05-16T07:15:32;95446.00;;;15.40
30765;BMP180;494;48.744;10.106;2023-05-16T07:18:05;95257.00;;;15.90
30765;BMP180;494;48.744;10.106;2023-05-16T07:20:36;95409.00;;;16.10
30765;BMP180;494;48.744;10.106;2023-05-16T07:23:05;95234.00;;;15.60
30765;BMP180;494;48.744;10.106;2023-05-16T07:25:34;95313.00;;;14.20
30765;BMP180;494;48.744;10.106;2023-05-16T07:28:03;94331.00;;;16.40
30765;BMP180;494;48.744;10.106;2023-05-16T07:30:32;94753.00;;;16.50
30765;BMP180;494;48.744;10.106;2023-05-16T07:33:01;94638.00;;;15.00
30765;BMP180;494;48.744;10.106;2023-05-16T07:35:30;95070.00;;;16.10
30765;BMP180;494;48.744;10.106;2023-05-16T07:38:00;94852.00;;;16.00
30765;BMP180;494;48.744;10.106;2023-05-16T07:40:29;95163.00;;;14.10
30765;BMP180;494;48.744;10.106;2023-05-16T07:42:58;95381.00;;;15.80
30765;BMP180;494;48.744;10.106;2023-05-16T07:45:29;95397.00;;;15.50
30765;BMP180;494;48.744;10.106;2023-05-16T07:47:57;95397.00;;;15.60
30765;BMP180;494;48.744;10.106;2023-05-16T07:50:27;95292.00;;;15.70
30765;BMP180;494;48.744;10.106;2023-05-16T07:52:55;95262.00;;;15.90
30765;BMP180;494;48.744;10.106;2023-05-16T07:55:26;95227.00;;;15.90
30765;BMP180;494;48.744;10.106;2023-05-16T07:57:55;95151.00;;;15.90
30765;BMP180;494;48.744;10.106;2023-05-16T08:00:24;95402.00;;;15.90
30765;BMP180;494;48.744;10.106;2023-05-16T08:02:53;95256.00;;;15.90
30765;BMP180;494;48.744;10.106;2023-05-16T08:05:22;95231.00;;;16.00
30765;BMP180;494;48.744;10.106;2023-05-16T08:07:52;95395.00;;;16.00
30765;BMP180;494;48.744;10.106;2023-05-16T08:10:21;95320.00;;;15.90
30765;BMP180;494;48.744;10.106;2023-05-16T08:12:52;95394.00;;;16.10
30765;BMP180;494;48.744;10.106;2023-05-16T08:15:21;95308.00;;;16.10
30765;BMP180;494;48.744;10.106;2023-05-16T08:17:50;95329.00;;;16.30
30765;BMP180;494;48.744;10.106;2023-05-16T08:20:19;95210.00;;;16.40
30765;BMP180;494;48.744;10.106;2023-05-16T08:22:47;95196.00;;;16.40
30765;BMP180;494;48.744;10.106;2023-05-16T08:25:16;95293.00;;;16.40
30765;BMP180;494;48.744;10.106;2023-05-16T08:27:48;95458.00;;;16.20
30765;BMP180;494;48.744;10.106;2023-05-16T08:30:18;95237.00;;;15.80
30765;BMP180;494;48.744;10.106;2023-05-16T08:32:47;95350.00;;;16.00
30765;BMP180;494;48.744;10.106;2023-05-16T08:35:20;95305.00;;;16.20
30765;BMP180;494;48.744;10.106;2023-05-16T08:37:48;95136.00;;;15.40
30765;BMP180;494;48.744;10.106;2023-05-16T08:40:18;95411.00;;;16.10
30765;BMP180;494;48.744;10.106;2023-05-16T08:42:47;94832.00;;;16.10
30765;BMP180;494;48.744;10.106;2023-05-16T08:45:17;94995.00;;;16.30
30765;BMP180;494;48.744;10.106;2023-05-16T08:47:49;95228.00;;;16.60
30765;BMP180;494;48.744;10.106;2023-05-16T08:50:18;94991.00;;;16.70
30765;BMP180;494;48.744;10.106;2023-05-16T08:52:51;95447.00;;;16.60
30765;BMP180;494;48.744;10.106;2023-05-16T08:55:23;95418.00;;;16.80
30765;BMP180;494;48.744;10.106;2023-05-16T08:57:54;95426.00;;;16.70
30765;BMP180;494;48.744;10.106;2023-05-16T09:00:27;95422.00;;;16.50
30765;BMP180;494;48.744;10.106;2023-05-16T09:02:58;95392.00;;;14.90
30765;BMP180;494;48.744;10.106;2023-05-16T09:05:29;95157.00;;;16.90
30765;BMP180;494;48.744;10.106;2023-05-16T09:07:58;95419.00;;;17.10
30765;BMP180;494;48.744;10.106;2023-05-16T09:10:27;95408.00;;;17.00
30765;BMP180;494;48.744;10.106;2023-05-16T09:12:56;95235.00;;;16.20
30765;BMP180;494;48.744;10.106;2023-05-16T09:15:32;95415.00;;;16.70
30765;BMP180;494;48.744;10.106;2023-05-16T09:18:02;95225.00;;;16.80
30765;BMP180;494;48.744;10.106;2023-05-16T09:20:31;95351.00;;;16.40
30765;BMP180;494;48.744;10.106;2023-05-16T09:23:00;95103.00;;;16.40
30765;BMP180;494;48.744;10.106;2023-05-16T09:25:32;95306.00;;;15.70
30765;BMP180;494;48.744;10.106;2023-05-16T09:28:01;95417.00;;;16.10
30765;BMP180;494;48.744;10.106;2023-05-16T09:30:33;95330.00;;;16.20
30765;BMP180;494;48.744;10.106;2023-05-16T09:33:06;95256.00;;;16.00
30765;BMP180;494;48.744;10.106;2023-05-16T09:35:35;95434.00;;;16.50
30765;BMP180;494;48.744;10.106;2023-05-16T09:38:13;95329.00;;;16.40
30765;BMP180;494;48.744;10.106;2023-05-16T09:40:44;95432.00;;;16.60
30765;BMP180;494;48.744;10.106;2023-05-16T09:43:15;95409.00;;;16.40
30765;BMP180;494;48.744;10.106;2023-05-16T09:45:47;95162.00;;;16.20
30765;BMP180;494;48.744;10.106;2023-05-16T09:48:17;95077.00;;;16.30
30765;BMP180;494;48.744;10.106;2023-05-16T09:50:49;95627.00;;;16.10
30765;BMP180;494;48.744;10.106;2023-05-16T09:53:26;95440.00;;;16.00
30765;BMP180;494;48.744;10.106;2023-05-16T09:56:03;95424.00;;;16.20
30765;BMP180;494;48.744;10.106;2023-05-16T09:58:37;95429.00;;;16.20
30765;BMP180;494;48.744;10.106;2023-05-16T10:01:09;95433.00;;;15.90
30765;BMP180;494;48.744;10.106;2023-05-16T10:03:40;94982.00;;;15.40
30765;BMP180;494;48.744;10.106;2023-05-16T10:06:11;95416.00;;;15.40
30765;BMP180;494;48.744;10.106;2023-05-16T10:08:43;94970.00;;;15.00
30765;BMP180;494;48.744;10.106;2023-05-16T10:11:13;95157.00;;;15.80
30765;BMP180;494;48.744;10.106;2023-05-16T10:13:45;95193.00;;;15.50
30765;BMP180;494;48.744;10.106;2023-05-16T10:16:21;95273.00;;;15.60
30765;BMP180;494;48.744;10.106;2023-05-16T10:18:52;95447.00;;;15.40
30765;BMP180;494;48.744;10.106;2023-05-16T10:21:24;94753.00;;;15.20
30765;BMP180;494;48.744;10.106;2023-05-16T10:23:57;95227.00;;;15.10
30765;BMP180;494;48.744;10.106;2023-05-16T10:26:32;95278.00;;;15.20
30765;BMP180;494;48.744;10.106;2023-05-16T10:29:02;95446.00;;;15.30
30765;BMP180;494;48.744;10.106;2023-05-16T10:31:33;94936.00;;;15.20
30765;BMP180;494;48.744;10.106;2023-05-16T10:34:03;95467.00;;;15.10
30765;BMP180;494;48.744;10.106;2023-05-16T10:36:40;95317.00;;;15.10
30765;BMP180;494;48.744;10.106;2023-05-16T10:39:09;95357.00;;;15.00
30765;BMP180;494;48.744;10.106;2023-05-16T10:41:39;95367.00;;;14.20
30765;BMP180;494;48.744;10.106;2023-05-16T10:44:14;95495.00;;;14.70
30765;BMP180;494;48.744;10.106;2023-05-16T10:46:46;95144.00;;;15.30
30765;BMP180;494;48.744;10.106;2023-05-16T10:49:23;95002.00;;;15.30
30765;BMP180;494;48.744;10.106;2023-05-16T10:52:06;95461.00;;;15.20
30765;BMP180;494;48.744;10.106;2023-05-16T10:54:39;95501.00;;;15.30
30765;BMP180;494;48.744;10.106;2023-05-16T10:57:11;95560.00;;;15.30
30765;BMP180;494;48.744;10.106;2023-05-16T10:59:44;95230.00;;;15.00
30765;BMP180;494;48.744;10.106;2023-05-16T11:02:26;95449.00;;;15.10
30765;BMP180;494;48.744;10.106;2023-05-16T11:04:58;95458.00;;;15.00
30765;BMP180;494;48.744;10.106;2023-05-16T11:07:32;95476.00;;;15.10
30765;BMP180;494;48.744;10.106;2023-05-16T11:10:04;95364.00;;;15.20
30765;BMP180;494;48.744;10.106;2023-05-16T11:12:42;95543.00;;;15.50
30765;BMP180;494;48.744;10.106;2023-05-16T11:15:23;95331.00;;;15.90
30765;BMP180;494;48.744;10.106;2023-05-16T11:18:08;95366.00;;;16.10
30765;BMP180;494;48.744;10.106;2023-05-16T11:20:38;95468.00;;;16.30
30765;BMP180;494;48.744;10.106;2023-05-16T11:23:24;95474.00;;;15.80
30765;BMP180;494;48.744;10.106;2023-05-16T11:25:55;95512.00;;;16.20
30765;BMP180;494;48.744;10.106;2023-05-16T11:28:26;95467.00;;;16.10
30765;BMP180;494;48.744;10.106;2023-05-16T11:30:58;95459.00;;;16.30
30765;BMP180;494;48.744;10.106;2023-05-16T11:33:30;95425.00;;;16.70
30765;BMP180;494;48.744;10.106;2023-05-16T11:36:03;95473.00;;;16.30
30765;BMP180;494;48.744;10.106;2023-05-16T11:38:35;95041.00;;;15.00
30765;BMP180;494;48.744;10.106;2023-05-16T11:41:08;95361.00;;;16.50
30765;BMP180;494;48.744;10.106;2023-05-16T11:43:40;95443.00;;;16.90
30765;BMP180;494;48.744;10.106;2023-05-16T11:46:11;95436.00;;;17.10
30765;BMP180;494;48.744;10.106;2023-05-16T11:48:42;94755.00;;;14.30
30765;BMP180;494;48.744;10.106;2023-05-16T11:51:12;95291.00;;;17.30
30765;BMP180;494;48.744;10.106;2023-05-16T11:53:48;95509.00;;;15.00
30765;BMP180;494;48.744;10.106;2023-05-16T11:56:18;95423.00;;;17.10
30765;BMP180;494;48.744;10.106;2023-05-16T11:58:48;95414.00;;;16.80
30765;BMP180;494;48.744;10.106;2023-05-16T12:01:18;95465.00;;;17.00
30765;BMP180;494;48.744;10.106;2023-05-16T12:03:55;95474.00;;;16.90
30765;BMP180;494;48.744;10.106;2023-05-16T12:06:24;94963.00;;;16.90
30765;BMP180;494;48.744;10.106;2023-05-16T12:08:55;94779.00;;;16.90
30765;BMP180;494;48.744;10.106;2023-05-16T12:11:25;95068.00;;;17.20
30765;BMP180;494;48.744;10.106;2023-05-16T12:13:55;95397.00;;;17.30
30765;BMP180;494;48.744;10.106;2023-05-16T12:16:24;95163.00;;;17.30
30765;BMP180;494;48.744;10.106;2023-05-16T12:18:54;95536.00;;;15.20
30765;BMP180;494;48.744;10.106;2023-05-16T12:21:23;95451.00;;;17.60
30765;BMP180;494;48.744;10.106;2023-05-16T12:23:55;95404.00;;;18.30
30765;BMP180;494;48.744;10.106;2023-05-16T12:26:26;95346.00;;;18.60
30765;BMP180;494;48.744;10.106;2023-05-16T12:28:57;95452.00;;;18.60
30765;BMP180;494;48.744;10.106;2023-05-16T12:31:27;95468.00;;;19.10
30765;BMP180;494;48.744;10.106;2023-05-16T12:34:00;95493.00;;;18.60
30765;BMP180;494;48.744;10.106;2023-05-16T12:36:32;94771.00;;;17.90
30765;BMP180;494;48.744;10.106;2023-05-16T12:39:02;95351.00;;;16.00
30765;BMP180;494;48.744;10.106;2023-05-16T12:41:31;94833.00;;;18.30
30765;BMP180;494;48.744;10.106;2023-05-16T12:44:10;95503.00;;;19.00
30765;BMP180;494;48.744;10.106;2023-05-16T12:46:44;95479.00;;;19.00
30765;BMP180;494;48.744;10.106;2023-05-16T12:49:19;95441.00;;;18.70
30765;BMP180;494;48.744;10.106;2023-05-16T12:51:50;94837.00;;;19.00
30765;BMP180;494;48.744;10.106;2023-05-16T12:54:20;95463.00;;;18.50
30765;BMP180;494;48.744;10.106;2023-05-16T12:56:50;94929.00;;;16.90
30765;BMP180;494;48.744;10.106;2023-05-16T12:59:19;94536.00;;;16.00
30765;BMP180;494;48.744;10.106;2023-05-16T13:01:50;95366.00;;;17.40
30765;BMP180;494;48.744;10.106;2023-05-16T13:04:21;95367.00;;;17.30
30765;BMP180;494;48.744;10.106;2023-05-16T13:06:50;95107.00;;;15.90
30765;BMP180;494;48.744;10.106;2023-05-16T13:09:26;95515.00;;;17.80
30765;BMP180;494;48.744;10.106;2023-05-16T13:11:59;95472.00;;;17.60
30765;BMP180;494;48.744;10.106;2023-05-16T13:14:28;95447.00;;;14.90
30765;BMP180;494;48.744;10.106;2023-05-16T13:16:57;94950.00;;;15.60
30765;BMP180;494;48.744;10.106;2023-05-16T13:19:27;94932.00;;;16.50
30765;BMP180;494;48.744;10.106;2023-05-16T13:21:58;94878.00;;;18.00
30765;BMP180;494;48.744;10.106;2023-05-16T13:24:27;95218.00;;;16.70
30765;BMP180;494;48.744;10.106;2023-05-16T13:26:56;95632.00;;;18.70
30765;BMP180;494;48.744;10.106;2023-05-16T13:29:27;95595.00;;;17.60
30765;BMP180;494;48.744;10.106;2023-05-16T13:31:56;94641.00;;;19.00
30765;BMP180;494;48.744;10.106;2023-05-16T13:34:24;95475.00;;;18.90
30765;BMP180;494;48.744;10.106;2023-05-16T13:36:55;95479.00;;;18.70
30765;BMP180;494;48.744;10.106;2023-05-16T13:39:24;94641.00;;;18.70
30765;BMP180;494;48.744;10.106;2023-05-16T13:41:53;95307.00;;;18.50
30765;BMP180;494;48.744;10.106;2023-05-16T13:44:21;95487.00;;;18.50
30765;BMP180;494;48.744;10.106;2023-05-16T13:46:50;95175.00;;;18.30
30765;BMP180;494;48.744;10.106;2023-05-16T13:49:19;94590.00;;;17.70
30765;BMP180;494;48.744;10.106;2023-05-16T13:51:48;94658.00;;;13.80
30765;BMP180;494;48.744;10.106;2023-05-16T13:54:19;95630.00;;;17.50
30765;BMP180;494;48.744;10.106;2023-05-16T13:56:49;95309.00;;;17.30
30765;BMP180;494;48.744;10.106;2023-05-16T13:59:19;95397.00;;;17.30
30765;BMP180;494;48.744;10.106;2023-05-16T14:02:07;95508.00;;;17.50
30765;BMP180;494;48.744;10.106;2023-05-16T14:04:37;94835.00;;;16.00
30765;BMP180;494;48.744;10.106;2023-05-16T14:07:05;95173.00;;;17.80
30765;BMP180;494;48.744;10.106;2023-05-16T14:09:36;95268.00;;;17.70
30765;BMP180;494;48.744;10.106;2023-05-16T14:12:07;95509.00;;;17.40
30765;BMP180;494;48.744;10.106;2023-05-16T14:14:37;95514.00;;;17.40
30765;BMP180;494;48.744;10.106;2023-05-16T14:17:06;94851.00;;;15.60
30765;BMP180;494;48.744;10.106;2023-05-16T14:19:35;95462.00;;;16.60
30765;BMP180;494;48.744;10.106;2023-05-16T14:22:04;94558.00;;;16.90
30765;BMP180;494;48.744;10.106;2023-05-16T14:24:36;95065.00;;;16.90
30765;BMP180;494;48.744;10.106;2023-05-16T14:27:06;95366.00;;;17.10
30765;BMP180;494;48.744;10.106;2023-05-16T14:29:35;95349.00;;;17.10
30765;BMP180;494;48.744;10.106;2023-05-16T14:32:04;95580.00;;;17.20
30765;BMP180;494;48.744;10.106;2023-05-16T14:34:33;95526.00;;;17.10
30765;BMP180;494;48.744;10.106;2023-05-16T14:37:02;95706.00;;;16.70
30765;BMP180;494;48.744;10.106;2023-05-16T14:39:31;95493.00;;;16.50
30765;BMP180;494;48.744;10.106;2023-05-16T14:42:02;95591.00;;;16.20
30765;BMP180;494;48.744;10.106;2023-05-16T14:44:34;95622.00;;;15.50
30765;BMP180;494;48.744;10.106;2023-05-16T14:47:04;95533.00;;;15.80
30765;BMP180;494;48.744;10.106;2023-05-16T14:49:32;95404.00;;;16.30
30765;BMP180;494;48.744;10.106;2023-05-16T14:52:01;95461.00;;;16.40
30765;BMP180;494;48.744;10.106;2023-05-16T14:54:30;95548.00;;;16.30